Sbi Magnum — V7FQ8 — position and weather

sailwx.info

Track history (hours):
 
Tides and Currents Weather Stations Pressure Air Temp Water Temp Dewpoint Dewpoint Depression Visibility Wind Speed Wind Dir Waves Ship Positions

Sbi Magnum

Last reported at 2017-Nov-18 07:17 UTC. Time now 2017-Nov-18 10:19 UTC.
Position N 47°07' W 007°14'.

Length 292 m; draft 8.7 m.

Type: Cargo ship. MMSI: 538005643.

Date/timePositionNaut miles runAvg speedWind from/ knotsBaromVisibWave heightAir tempDewpointWater temp
2017-Nov-18 07:17N 47°07' W 007°14'415.2
2017-Nov-18 07:01N 47°11' W 007°11'1115.0
2017-Nov-18 06:17N 47°20' W 007°04'715.0
2017-Nov-18 05:50N 47°26' W 006°58'515.0
2017-Nov-18 05:30N 47°31' W 006°55'1715.2
2017-Nov-18 04:22N 47°46' W 006°43'714.5
2017-Nov-18 03:52N 47°52' W 006°38'1113.6
2017-Nov-18 03:05N 48°02' W 006°31'313.8
2017-Nov-18 02:50N 48°05' W 006°30'513.5
2017-Nov-18 02:26N 48°10' W 006°27'613.8
2017-Nov-18 01:58N 48°16' W 006°23'613.6
2017-Nov-18 01:29N 48°22' W 006°19'813.9
2017-Nov-18 00:56N 48°29' W 006°13'614.1
2017-Nov-18 00:30N 48°34' W 006°09'714.4
2017-Nov-18 00:00N 48°40' W 006°03'1215.0
2017-Nov-17 23:13N 48°51' W 005°54'515.6
2017-Nov-17 22:52N 48°55' W 005°50'1010.3
2017-Nov-17 21:54N 48°59' W 005°36'3217.2
2017-Nov-17 20:04N 49°13' W 004°53'117.6
2017-Nov-17 19:59N 49°14' W 004°51'6414.2
2017-Nov-17 15:31N 49°46' W 003°26'014.2
2017-Nov-17 15:30N 49°46' W 003°26'714.5
2017-Nov-17 15:00N 49°49' W 003°16'815.4
2017-Nov-17 14:29N 49°53' W 003°05'816.2
2017-Nov-17 14:00N 49°57' W 002°55'917.4
2017-Nov-17 13:30N 49°59' W 002°42'918.3
2017-Nov-17 13:00N 50°02' W 002°28'1018.7
2017-Nov-17 12:28N 50°01' W 002°12'919.0
2017-Nov-17 12:00N 50°00' W 001°59'918.0
2017-Nov-17 11:30N 49°60' W 001°45'917.1
2017-Nov-17 11:00N 49°57' W 001°32'816.6
2017-Nov-17 10:31N 49°54' W 001°20'815.8
2017-Nov-17 10:00N 49°51' W 001°09'815.0
2017-Nov-17 09:30N 49°47' W 000°59'714.2
2017-Nov-17 09:00N 49°44' W 000°49'713.8
2017-Nov-17 08:30N 49°41' W 000°39'713.6
2017-Nov-17 08:00N 49°38' W 000°29'713.6
2017-Nov-17 07:30N 49°36' W 000°20'714.0
2017-Nov-17 07:00N 49°33' W 000°10'713.1
2017-Nov-17 06:30N 49°30' W 000°01'510.5
2017-Nov-17 06:00N 49°28' E 000°06'2 4.4
2017-Nov-17 05:30N 49°27' E 000°10'0 0.1
2017-Nov-17 04:58N 49°27' E 000°10'0 0.0
2017-Nov-17 04:28N 49°27' E 000°10'0 0.0
2017-Nov-17 03:58N 49°27' E 000°10'0 0.0
2017-Nov-17 03:28N 49°27' E 000°10'0 0.0
2017-Nov-17 02:58N 49°27' E 000°10'0 0.0
2017-Nov-17 02:28N 49°27' E 000°10'0 0.0
2017-Nov-17 01:58N 49°27' E 000°10'0 0.0
2017-Nov-17 01:28N 49°27' E 000°10'0 0.0
2017-Nov-17 00:58N 49°27' E 000°10'0 0.0
2017-Nov-17 00:28N 49°27' E 000°10'0 0.0
2017-Nov-16 23:58N 49°27' E 000°10'0 0.0
2017-Nov-16 23:28N 49°27' E 000°10'0 0.0
2017-Nov-16 22:58N 49°27' E 000°10'0 0.0
2017-Nov-16 22:28N 49°27' E 000°10'0 0.0
2017-Nov-16 21:58N 49°27' E 000°10'0 0.0
2017-Nov-16 21:28N 49°27' E 000°10'0 0.0
2017-Nov-16 20:58N 49°27' E 000°10'0 0.0
2017-Nov-16 20:28N 49°27' E 000°10'0 0.0
2017-Nov-16 19:55N 49°27' E 000°10'0 0.0
2017-Nov-16 19:28N 49°27' E 000°10'0 0.0
2017-Nov-16 18:58N 49°27' E 000°10'0 0.0
2017-Nov-16 18:28N 49°27' E 000°10'0 0.0
2017-Nov-16 17:58N 49°27' E 000°10'0 0.0
2017-Nov-16 17:28N 49°27' E 000°10'0 0.0
2017-Nov-16 16:58N 49°27' E 000°10'0 0.0
2017-Nov-16 16:28N 49°27' E 000°10'0 0.0
2017-Nov-16 15:58N 49°27' E 000°10'0 0.0
2017-Nov-16 15:28N 49°27' E 000°10'0 0.0
2017-Nov-16 14:58N 49°27' E 000°10'0 0.0
2017-Nov-16 14:28N 49°27' E 000°10'0 0.0
2017-Nov-16 13:58N 49°27' E 000°10'0 0.0
2017-Nov-16 13:28N 49°27' E 000°10'0 0.0
2017-Nov-16 12:58N 49°27' E 000°10'0 0.0
2017-Nov-16 12:28N 49°27' E 000°10'0 0.0
2017-Nov-16 11:58N 49°27' E 000°10'0 0.0
2017-Nov-16 11:28N 49°27' E 000°10'0 0.0
2017-Nov-16 10:58N 49°27' E 000°10'0 0.0
2017-Nov-16 10:28N 49°27' E 000°10'0 0.0
2017-Nov-16 09:58N 49°27' E 000°10'0 0.0
2017-Nov-16 09:28N 49°27' E 000°10'0 0.0
2017-Nov-16 08:58N 49°27' E 000°10'0 0.0
2017-Nov-16 08:28N 49°27' E 000°10'0 0.0
2017-Nov-16 07:58N 49°27' E 000°10'0 0.0
2017-Nov-16 07:28N 49°27' E 000°10'0 0.0
2017-Nov-16 06:58N 49°27' E 000°10'0 0.0
2017-Nov-16 06:28N 49°27' E 000°10'0 0.0
2017-Nov-16 05:58N 49°27' E 000°10'0 0.0
2017-Nov-16 05:28N 49°27' E 000°10'0 0.0
2017-Nov-16 04:58N 49°27' E 000°10'0 0.0
2017-Nov-16 04:28N 49°27' E 000°10'0 0.0
2017-Nov-16 03:58N 49°27' E 000°10'0 0.0
2017-Nov-16 03:28N 49°27' E 000°10'0 0.0
2017-Nov-16 02:58N 49°27' E 000°10'0 0.0
2017-Nov-16 02:28N 49°27' E 000°10'0 0.0
2017-Nov-16 01:58N 49°27' E 000°10'0 0.0
2017-Nov-16 01:28N 49°27' E 000°10'0 0.0
2017-Nov-16 00:58N 49°27' E 000°10'0 0.0
2017-Nov-16 00:28N 49°27' E 000°10'0 0.0
2017-Nov-15 23:58N 49°27' E 000°10'0 0.0
2017-Nov-15 23:28N 49°27' E 000°10'0 0.0
2017-Nov-15 22:58N 49°27' E 000°10'0 0.0
2017-Nov-15 22:28N 49°27' E 000°10'0 0.0
2017-Nov-15 21:58N 49°27' E 000°10'0 0.0
2017-Nov-15 21:28N 49°27' E 000°10'0 0.0
2017-Nov-15 20:58N 49°27' E 000°10'0 0.0
2017-Nov-15 20:28N 49°27' E 000°10'0 0.0
2017-Nov-15 19:58N 49°27' E 000°10'0 0.0
2017-Nov-15 19:28N 49°27' E 000°10'0 0.0
2017-Nov-15 18:58N 49°27' E 000°10'0 0.0
2017-Nov-15 18:28N 49°27' E 000°10'0 0.0
2017-Nov-15 17:58N 49°27' E 000°10'0 0.7
2017-Nov-15 17:30N 49°27' E 000°09'2 3.1
2017-Nov-15 17:00N 49°28' E 000°07'611.3
2017-Nov-15 16:31N 49°30' W 000°01'713.1
2017-Nov-15 16:01N 49°32' W 000°10'1 2.0
2017-Nov-15 15:30N 49°33' W 000°12'713.7
2017-Nov-15 15:00N 49°40' W 000°11'917.5
2017-Nov-15 14:31N 49°47' W 000°05'918.6
2017-Nov-15 14:00N 49°54' E 000°05'918.6
2017-Nov-15 13:30N 50°02' E 000°14'3517.2
2017-Nov-15 11:30N 50°30' E 000°44'816.3
2017-Nov-15 11:01N 50°38' E 000°46'917.8
2017-Nov-15 10:30N 50°44' E 000°57'917.1
2017-Nov-15 10:00N 50°49' E 001°07'816.4
2017-Nov-15 09:30N 50°54' E 001°17'816.0
2017-Nov-15 09:00N 50°60' E 001°26'917.3
2017-Nov-15 08:30N 51°06' E 001°36'917.9
2017-Nov-15 08:00N 51°13' E 001°45'918.9
2017-Nov-15 07:30N 51°20' E 001°54'1019.3
2017-Nov-15 07:00N 51°28' E 002°03'1019.4
2017-Nov-15 06:30N 51°35' E 002°14'1019.7
2017-Nov-15 06:00N 51°43' E 002°24'3617.9
2017-Nov-15 04:00N 52°03' E 003°12'1017.9
2017-Nov-15 03:27N 52°03' E 003°28'716.6
2017-Nov-15 03:00N 52°03' E 003°40'713.2
2017-Nov-15 02:30N 52°03' E 003°51'4 8.4
2017-Nov-15 02:00N 52°01' E 003°57'611.5
2017-Nov-15 01:31N 51°59' E 004°05'2 3.3
2017-Nov-15 01:00N 51°58' E 004°02'2 3.0
2017-Nov-15 00:30N 51°58' E 003°60'1 1.2
2017-Nov-15 00:00N 51°57' E 003°60'0 0.0
2017-Nov-14 23:29N 51°57' E 003°60'0 0.0
2017-Nov-14 22:59N 51°57' E 003°60'0 0.0
2017-Nov-14 22:29N 51°57' E 003°60'0 0.0
2017-Nov-14 21:59N 51°57' E 003°60'0 0.0
2017-Nov-14 21:29N 51°57' E 003°60'0 0.0
2017-Nov-14 20:59N 51°57' E 003°60'0 0.0
2017-Nov-14 20:29N 51°57' E 003°60'0 0.0
2017-Nov-14 19:59N 51°57' E 003°60'0 0.0
2017-Nov-14 19:29N 51°57' E 003°60'0 0.0
2017-Nov-14 18:59N 51°57' E 003°60'0 0.0
2017-Nov-14 18:29N 51°57' E 003°60'0 0.0
2017-Nov-14 17:59N 51°57' E 003°60'0 0.0
2017-Nov-14 17:29N 51°57' E 003°60'0 0.0
2017-Nov-14 16:59N 51°57' E 003°60'0 0.0
2017-Nov-14 16:29N 51°57' E 003°60'0 0.0
2017-Nov-14 15:59N 51°57' E 003°60'0 0.0
2017-Nov-14 15:29N 51°57' E 003°60'0 0.0
2017-Nov-14 14:59N 51°57' E 003°60'0 0.0
2017-Nov-14 14:29N 51°57' E 003°60'0 0.0
2017-Nov-14 13:59N 51°57' E 003°60'0 0.0
2017-Nov-14 13:29N 51°57' E 003°60'0 0.0
2017-Nov-14 12:59N 51°57' E 003°60'0 0.0
2017-Nov-14 12:29N 51°57' E 003°60'0 0.0
2017-Nov-14 11:59N 51°57' E 003°60'0 0.0
2017-Nov-14 11:29N 51°57' E 003°60'0 0.0
2017-Nov-14 10:59N 51°57' E 003°60'0 0.0
2017-Nov-14 10:29N 51°57' E 003°60'0 0.0
2017-Nov-14 09:59N 51°57' E 003°60'0 0.0
2017-Nov-14 09:29N 51°57' E 003°60'0 0.0
2017-Nov-14 08:59N 51°57' E 003°60'0 0.0
2017-Nov-14 08:29N 51°57' E 003°60'0 0.0
2017-Nov-14 07:59N 51°57' E 003°60'0 0.0
2017-Nov-14 07:29N 51°57' E 003°60'0 0.0
2017-Nov-14 06:59N 51°57' E 003°60'0 0.0
2017-Nov-14 06:29N 51°57' E 003°60'0 0.0
2017-Nov-14 05:59N 51°57' E 003°60'0 0.0
2017-Nov-14 05:29N 51°57' E 003°60'0 0.0
2017-Nov-14 04:59N 51°57' E 003°60'0 0.0
2017-Nov-14 04:29N 51°57' E 003°60'0 0.0
2017-Nov-14 03:59N 51°57' E 003°60'0 0.0
2017-Nov-14 03:29N 51°57' E 003°60'0 0.0
2017-Nov-14 02:59N 51°57' E 003°60'0 0.0
2017-Nov-14 02:29N 51°57' E 003°60'0 0.0
2017-Nov-14 01:59N 51°57' E 003°60'0 0.0
2017-Nov-14 01:29N 51°57' E 003°60'0 0.0
2017-Nov-14 00:58N 51°57' E 003°60'0 0.0
2017-Nov-14 00:29N 51°57' E 003°60'0 0.0
2017-Nov-13 23:59N 51°57' E 003°60'0 0.0
2017-Nov-13 23:26N 51°57' E 003°60'0 0.0
2017-Nov-13 22:59N 51°57' E 003°60'0 0.0
2017-Nov-13 22:29N 51°57' E 003°60'0 0.0
2017-Nov-13 21:56N 51°57' E 003°60'0 0.0
2017-Nov-13 01:58N 51°57' E 003°60'0 0.0
2017-Nov-13 01:28N 51°57' E 003°60'0 0.0
2017-Nov-13 00:58N 51°57' E 003°60'0 0.0
2017-Nov-13 00:28N 51°57' E 003°60'0 0.0
2017-Nov-12 23:58N 51°57' E 003°60'0 0.0
2017-Nov-12 23:28N 51°57' E 003°60'0 0.0
2017-Nov-12 22:58N 51°57' E 003°60'0 0.0
2017-Nov-12 22:28N 51°57' E 003°60'0 0.0
2017-Nov-12 21:58N 51°57' E 003°60'0 0.0
2017-Nov-12 21:28N 51°57' E 003°60'0 0.0
2017-Nov-12 20:58N 51°57' E 003°60'0 0.0
2017-Nov-12 20:28N 51°57' E 003°60'0 0.0
2017-Nov-12 19:58N 51°57' E 003°60'0 0.0
2017-Nov-12 19:28N 51°57' E 003°60'0 0.0
2017-Nov-12 18:58N 51°57' E 003°60'0 0.0
2017-Nov-12 18:28N 51°57' E 003°60'0 0.0
2017-Nov-12 17:58N 51°57' E 003°60'0 0.0
2017-Nov-12 17:28N 51°57' E 003°60'0 0.0
2017-Nov-12 16:58N 51°57' E 003°60'0 0.0
2017-Nov-12 16:28N 51°57' E 003°60'0 0.0
2017-Nov-12 15:58N 51°57' E 003°60'0 0.0
2017-Nov-12 15:28N 51°57' E 003°60'0 0.0
2017-Nov-12 14:58N 51°57' E 003°60'0 0.0
2017-Nov-12 14:28N 51°57' E 003°60'0 0.0
2017-Nov-12 13:58N 51°57' E 003°60'0 0.0
2017-Nov-12 13:28N 51°57' E 003°60'0 0.0
2017-Nov-12 12:58N 51°57' E 003°60'0 0.0
2017-Nov-12 12:28N 51°57' E 003°60'0 0.0
2017-Nov-12 11:55N 51°57' E 003°60'0 0.0
2017-Nov-12 11:28N 51°57' E 003°60'0 0.0
2017-Nov-12 10:58N 51°57' E 003°60'1 2.2
2017-Nov-12 10:30N 51°58' E 003°60'2 3.4
2017-Nov-12 10:00N 51°58' E 004°03'2 3.1
2017-Nov-12 09:31N 51°58' E 004°05'4 9.0
2017-Nov-12 09:00N 52°00' E 003°59'713.7
2017-Nov-12 08:30N 52°00' E 003°48'3 5.7
2017-Nov-12 08:00N 52°01' E 003°43'3 5.8
2017-Nov-12 07:30N 52°03' E 003°44'713.3
2017-Nov-12 07:00N 52°10' E 003°46'817.0
2017-Nov-12 06:30N 52°18' E 003°47'917.1
2017-Nov-12 06:00N 52°27' E 003°50'917.6
2017-Nov-12 05:30N 52°35' E 003°53'918.2
2017-Nov-12 05:00N 52°44' E 003°56'1318.4
2017-Nov-12 04:19N 52°57' E 004°00'817.7
2017-Nov-12 03:52N 53°02' E 004°11'718.5
2017-Nov-12 03:30N 53°06' E 004°19'917.6
2017-Nov-12 03:00N 53°13' E 004°27'12015.3
2017-Nov-11 19:11N 54°00' E 007°33'417.3
2017-Nov-11 18:58N 54°01' E 007°39'817.6
2017-Nov-11 18:30N 54°01' E 007°53'816.4
2017-Nov-11 18:00N 54°01' E 008°07'611.4
2017-Nov-11 17:30N 54°00' E 008°17'714.3
2017-Nov-11 17:00N 53°59' E 008°28'612.8
2017-Nov-11 16:30N 53°57' E 008°39'511.0
2017-Nov-11 16:00N 53°52' E 008°44'510.5
2017-Nov-11 15:30N 53°50' E 008°52'612.7
2017-Nov-11 15:00N 53°52' E 009°03'611.9
2017-Nov-11 14:30N 53°53' E 009°13'714.6
2017-Nov-11 14:00N 53°48' E 009°23'713.9
2017-Nov-11 13:31N 53°43' E 009°29'612.4
2017-Nov-11 13:00N 53°37' E 009°34'611.8
2017-Nov-11 12:31N 53°34' E 009°42'510.2
2017-Nov-11 12:00N 53°33' E 009°51'3 5.0
2017-Nov-11 11:30N 53°32' E 009°55'0 0.1
2017-Nov-11 10:58N 53°32' E 009°55'0 0.0
2017-Nov-11 10:28N 53°32' E 009°55'0 0.0
2017-Nov-11 09:58N 53°32' E 009°55'0 0.0
2017-Nov-11 09:28N 53°32' E 009°55'0 0.0
2017-Nov-11 08:58N 53°32' E 009°55'0 0.0
2017-Nov-11 08:28N 53°32' E 009°55'0 0.0
2017-Nov-11 07:58N 53°32' E 009°55'0 0.0
2017-Nov-11 07:28N 53°32' E 009°55'0 0.0
2017-Nov-11 06:58N 53°32' E 009°55'0 0.0
2017-Nov-11 06:28N 53°32' E 009°55'0 0.0
2017-Nov-11 05:55N 53°32' E 009°55'0 0.0
2017-Nov-11 05:28N 53°32' E 009°55'0 0.0
2017-Nov-11 04:58N 53°32' E 009°55'0 0.0
2017-Nov-11 04:28N 53°32' E 009°55'0 0.0
2017-Nov-11 03:58N 53°32' E 009°55'0 0.0
2017-Nov-11 03:28N 53°32' E 009°55'0 0.0
2017-Nov-11 02:58N 53°32' E 009°55'0 0.0
2017-Nov-11 02:28N 53°32' E 009°55'0 0.0
2017-Nov-11 01:58N 53°32' E 009°55'0 0.0
2017-Nov-11 01:28N 53°32' E 009°55'0 0.0
2017-Nov-11 00:58N 53°32' E 009°55'0 0.0
2017-Nov-11 00:28N 53°32' E 009°55'0 0.0
2017-Nov-10 23:58N 53°32' E 009°55'0 0.0
2017-Nov-10 23:25N 53°32' E 009°55'0 0.0
2017-Nov-10 22:58N 53°32' E 009°55'0 0.0
2017-Nov-10 22:28N 53°32' E 009°55'0 0.0
2017-Nov-10 21:58N 53°32' E 009°55'0 0.0
2017-Nov-10 21:28N 53°32' E 009°55'0 0.0
2017-Nov-10 20:58N 53°32' E 009°55'0 0.0
2017-Nov-10 20:28N 53°32' E 009°55'0 0.0
2017-Nov-10 19:58N 53°32' E 009°55'0 0.0
2017-Nov-10 19:28N 53°32' E 009°55'0 0.0
2017-Nov-10 18:58N 53°32' E 009°55'0 0.0
2017-Nov-10 18:28N 53°32' E 009°55'0 0.0
2017-Nov-10 17:58N 53°32' E 009°55'0 0.0
2017-Nov-10 17:28N 53°32' E 009°55'0 0.0
2017-Nov-10 16:58N 53°32' E 009°55'0 0.0
2017-Nov-10 16:28N 53°32' E 009°55'0 0.0
2017-Nov-10 15:58N 53°32' E 009°55'0 0.0
2017-Nov-10 15:28N 53°32' E 009°55'0 0.0
2017-Nov-10 14:58N 53°32' E 009°55'0 0.0
2017-Nov-10 14:28N 53°32' E 009°55'0 0.0
2017-Nov-10 13:58N 53°32' E 009°55'0 0.0
2017-Nov-10 13:28N 53°32' E 009°55'0 0.0
2017-Nov-10 12:58N 53°32' E 009°55'0 0.0
2017-Nov-10 12:28N 53°32' E 009°55'0 0.0
2017-Nov-10 11:58N 53°32' E 009°55'0 0.0
2017-Nov-10 11:28N 53°32' E 009°55'0 0.0
2017-Nov-10 10:58N 53°32' E 009°55'0 0.0
2017-Nov-10 10:25N 53°32' E 009°55'0 0.0
2017-Nov-10 09:58N 53°32' E 009°55'0 0.0
2017-Nov-10 09:28N 53°32' E 009°55'0 0.0
2017-Nov-10 08:58N 53°32' E 009°55'0 0.0
2017-Nov-10 08:28N 53°32' E 009°55'0 0.0
2017-Nov-10 07:58N 53°32' E 009°55'0 0.0
2017-Nov-10 07:28N 53°32' E 009°55'0 0.0
2017-Nov-10 06:58N 53°32' E 009°55'0 0.0
2017-Nov-10 06:28N 53°32' E 009°55'0 0.0
2017-Nov-10 05:58N 53°32' E 009°55'0 0.0
2017-Nov-10 05:28N 53°32' E 009°55'0 0.0
2017-Nov-10 04:58N 53°32' E 009°55'0 0.0
2017-Nov-10 04:28N 53°32' E 009°55'0 0.0
2017-Nov-10 03:55N 53°32' E 009°55'0 0.0
2017-Nov-10 03:28N 53°32' E 009°55'0 0.0
2017-Nov-10 02:58N 53°32' E 009°55'0 0.0
2017-Nov-10 02:28N 53°32' E 009°55'0 0.0
2017-Nov-10 01:58N 53°32' E 009°55'0 0.0
2017-Nov-10 01:28N 53°32' E 009°55'0 0.0
2017-Nov-10 00:58N 53°32' E 009°55'0 0.0
2017-Nov-10 00:25N 53°32' E 009°55'0 0.0
2017-Nov-09 23:58N 53°32' E 009°55'0 0.0
2017-Nov-09 23:28N 53°32' E 009°55'0 0.0
2017-Nov-09 22:58N 53°32' E 009°55'0 0.0
2017-Nov-09 22:28N 53°32' E 009°55'0 0.0
2017-Nov-09 21:58N 53°32' E 009°55'0 0.0
2017-Nov-09 21:28N 53°32' E 009°55'0 0.0
2017-Nov-09 20:58N 53°32' E 009°55'0 0.0
2017-Nov-09 20:28N 53°32' E 009°55'0 0.0
2017-Nov-09 19:58N 53°32' E 009°55'0 0.0
2017-Nov-09 19:28N 53°32' E 009°55'0 0.0
2017-Nov-09 18:58N 53°32' E 009°55'0 0.0
2017-Nov-09 18:28N 53°32' E 009°55'0 0.0
2017-Nov-09 17:58N 53°32' E 009°55'0 0.0
2017-Nov-09 17:28N 53°32' E 009°55'0 0.0
2017-Nov-09 16:58N 53°32' E 009°55'0 0.0
2017-Nov-09 16:28N 53°32' E 009°55'0 0.0
2017-Nov-09 15:58N 53°32' E 009°55'0 0.0
2017-Nov-09 15:28N 53°32' E 009°55'0 0.0
2017-Nov-09 14:58N 53°32' E 009°55'0 0.0
2017-Nov-09 14:28N 53°32' E 009°55'0 0.0
2017-Nov-09 13:58N 53°32' E 009°55'0 0.0
2017-Nov-09 13:28N 53°32' E 009°55'0 0.0
2017-Nov-09 12:58N 53°32' E 009°55'0 0.0
2017-Nov-09 12:28N 53°32' E 009°55'0 0.0
2017-Nov-09 11:58N 53°32' E 009°55'0 0.0
2017-Nov-09 11:28N 53°32' E 009°55'0 0.0
2017-Nov-09 10:58N 53°32' E 009°55'0 0.0
2017-Nov-09 10:28N 53°32' E 009°55'0 0.0
2017-Nov-09 09:58N 53°32' E 009°55'0 0.0
2017-Nov-09 09:28N 53°32' E 009°55'0 0.0
2017-Nov-09 08:58N 53°32' E 009°55'0 0.0
2017-Nov-09 08:28N 53°32' E 009°55'0 0.0
2017-Nov-09 07:58N 53°32' E 009°55'0 0.0
2017-Nov-09 07:28N 53°32' E 009°55'0 0.0
2017-Nov-09 06:58N 53°32' E 009°55'0 0.0
2017-Nov-09 06:28N 53°32' E 009°55'0 0.0
2017-Nov-09 05:58N 53°32' E 009°55'0 0.0
2017-Nov-09 05:28N 53°32' E 009°55'0 0.0
2017-Nov-09 04:58N 53°32' E 009°55'0 0.0
2017-Nov-09 04:28N 53°32' E 009°55'0 0.0
2017-Nov-09 03:58N 53°32' E 009°55'0 0.0
2017-Nov-09 03:28N 53°32' E 009°55'0 0.0
2017-Nov-09 02:58N 53°32' E 009°55'0 0.0
2017-Nov-09 02:28N 53°32' E 009°55'0 0.0
2017-Nov-09 01:58N 53°32' E 009°55'0 0.0
2017-Nov-09 01:28N 53°32' E 009°55'0 0.0
2017-Nov-09 00:58N 53°32' E 009°55'0 0.0
2017-Nov-09 00:31N 53°32' E 009°55'0 0.0
2017-Nov-08 23:58N 53°32' E 009°55'0 0.0
2017-Nov-08 23:28N 53°32' E 009°55'0 0.0
2017-Nov-08 22:58N 53°32' E 009°55'0 0.0
2017-Nov-08 22:31N 53°32' E 009°55'0 0.0
2017-Nov-08 22:01N 53°32' E 009°55'0 0.0
2017-Nov-08 21:28N 53°32' E 009°55'0 0.0
2017-Nov-08 20:58N 53°32' E 009°55'0 0.0
2017-Nov-08 20:28N 53°32' E 009°55'0 0.0
2017-Nov-08 19:58N 53°32' E 009°55'0 0.0
2017-Nov-08 19:28N 53°32' E 009°55'0 0.0
2017-Nov-08 18:58N 53°32' E 009°55'0 0.0
2017-Nov-08 18:31N 53°32' E 009°55'0 0.0
2017-Nov-08 17:58N 53°32' E 009°55'0 0.0
2017-Nov-08 17:25N 53°32' E 009°55'0 0.0
2017-Nov-08 16:58N 53°32' E 009°55'0 0.0
2017-Nov-08 16:28N 53°32' E 009°55'0 0.0
2017-Nov-08 15:58N 53°32' E 009°55'0 0.0
2017-Nov-08 15:28N 53°32' E 009°55'0 0.0
2017-Nov-08 14:57N 53°32' E 009°55'0 0.0
2017-Nov-08 14:28N 53°32' E 009°55'0 0.0
2017-Nov-08 14:01N 53°32' E 009°55'0 0.0
2017-Nov-08 13:28N 53°32' E 009°55'0 0.0
2017-Nov-08 13:01N 53°32' E 009°55'0 0.0
2017-Nov-08 12:28N 53°32' E 009°55'0 0.0
2017-Nov-08 11:58N 53°32' E 009°55'0 0.0
2017-Nov-08 11:28N 53°32' E 009°55'0 0.0
2017-Nov-08 10:58N 53°32' E 009°55'0 0.0
2017-Nov-08 10:31N 53°32' E 009°55'0 0.0
2017-Nov-08 10:01N 53°32' E 009°55'0 0.0
2017-Nov-08 09:30N 53°32' E 009°55'0 0.0
2017-Nov-08 08:58N 53°32' E 009°55'0 0.0
2017-Nov-08 08:28N 53°32' E 009°55'0 0.0
2017-Nov-08 08:01N 53°32' E 009°55'0 0.0
2017-Nov-08 07:31N 53°32' E 009°55'  
Track history (hours):
 
Tides and Currents Weather Stations Pressure Air Temp Water Temp Dewpoint Dewpoint Depression Visibility Wind Speed Wind Dir Waves Ship Positions

Sbi Magnum

Last reported at 2017-Nov-18 07:17 UTC. Time now 2017-Nov-18 10:19 UTC.
Position N 47°07' W 007°14'.

Length 292 m; draft 8.7 m.

Type: Cargo ship. MMSI: 538005643.

Date/timePositionNaut miles runAvg speedWind from/ knotsBaromVisibWave heightAir tempDewpointWater temp
2017-Nov-18 07:17N 47°07' W 007°14'415.2
2017-Nov-18 07:01N 47°11' W 007°11'1115.0
2017-Nov-18 06:17N 47°20' W 007°04'715.0
2017-Nov-18 05:50N 47°26' W 006°58'515.0
2017-Nov-18 05:30N 47°31' W 006°55'1715.2
2017-Nov-18 04:22N 47°46' W 006°43'714.5
2017-Nov-18 03:52N 47°52' W 006°38'1113.6
2017-Nov-18 03:05N 48°02' W 006°31'313.8
2017-Nov-18 02:50N 48°05' W 006°30'513.5
2017-Nov-18 02:26N 48°10' W 006°27'613.8
2017-Nov-18 01:58N 48°16' W 006°23'613.6
2017-Nov-18 01:29N 48°22' W 006°19'813.9
2017-Nov-18 00:56N 48°29' W 006°13'614.1
2017-Nov-18 00:30N 48°34' W 006°09'714.4
2017-Nov-18 00:00N 48°40' W 006°03'1215.0
2017-Nov-17 23:13N 48°51' W 005°54'515.6
2017-Nov-17 22:52N 48°55' W 005°50'1010.3
2017-Nov-17 21:54N 48°59' W 005°36'3217.2
2017-Nov-17 20:04N 49°13' W 004°53'117.6
2017-Nov-17 19:59N 49°14' W 004°51'6414.2
2017-Nov-17 15:31N 49°46' W 003°26'014.2
2017-Nov-17 15:30N 49°46' W 003°26'714.5
2017-Nov-17 15:00N 49°49' W 003°16'815.4
2017-Nov-17 14:29N 49°53' W 003°05'816.2
2017-Nov-17 14:00N 49°57' W 002°55'917.4
2017-Nov-17 13:30N 49°59' W 002°42'918.3
2017-Nov-17 13:00N 50°02' W 002°28'1018.7
2017-Nov-17 12:28N 50°01' W 002°12'919.0
2017-Nov-17 12:00N 50°00' W 001°59'918.0
2017-Nov-17 11:30N 49°60' W 001°45'917.1
2017-Nov-17 11:00N 49°57' W 001°32'816.6
2017-Nov-17 10:31N 49°54' W 001°20'815.8
2017-Nov-17 10:00N 49°51' W 001°09'815.0
2017-Nov-17 09:30N 49°47' W 000°59'714.2
2017-Nov-17 09:00N 49°44' W 000°49'713.8
2017-Nov-17 08:30N 49°41' W 000°39'713.6
2017-Nov-17 08:00N 49°38' W 000°29'713.6
2017-Nov-17 07:30N 49°36' W 000°20'714.0
2017-Nov-17 07:00N 49°33' W 000°10'713.1
2017-Nov-17 06:30N 49°30' W 000°01'510.5
2017-Nov-17 06:00N 49°28' E 000°06'2 4.4
2017-Nov-17 05:30N 49°27' E 000°10'0 0.1
2017-Nov-17 04:58N 49°27' E 000°10'0 0.0
2017-Nov-17 04:28N 49°27' E 000°10'0 0.0
2017-Nov-17 03:58N 49°27' E 000°10'0 0.0
2017-Nov-17 03:28N 49°27' E 000°10'0 0.0
2017-Nov-17 02:58N 49°27' E 000°10'0 0.0
2017-Nov-17 02:28N 49°27' E 000°10'0 0.0
2017-Nov-17 01:58N 49°27' E 000°10'0 0.0
2017-Nov-17 01:28N 49°27' E 000°10'0 0.0
2017-Nov-17 00:58N 49°27' E 000°10'0 0.0
2017-Nov-17 00:28N 49°27' E 000°10'0 0.0
2017-Nov-16 23:58N 49°27' E 000°10'0 0.0
2017-Nov-16 23:28N 49°27' E 000°10'0 0.0
2017-Nov-16 22:58N 49°27' E 000°10'0 0.0
2017-Nov-16 22:28N 49°27' E 000°10'0 0.0
2017-Nov-16 21:58N 49°27' E 000°10'0 0.0
2017-Nov-16 21:28N 49°27' E 000°10'0 0.0
2017-Nov-16 20:58N 49°27' E 000°10'0 0.0
2017-Nov-16 20:28N 49°27' E 000°10'0 0.0
2017-Nov-16 19:55N 49°27' E 000°10'0 0.0
2017-Nov-16 19:28N 49°27' E 000°10'0 0.0
2017-Nov-16 18:58N 49°27' E 000°10'0 0.0
2017-Nov-16 18:28N 49°27' E 000°10'0 0.0
2017-Nov-16 17:58N 49°27' E 000°10'0 0.0
2017-Nov-16 17:28N 49°27' E 000°10'0 0.0
2017-Nov-16 16:58N 49°27' E 000°10'0 0.0
2017-Nov-16 16:28N 49°27' E 000°10'0 0.0
2017-Nov-16 15:58N 49°27' E 000°10'0 0.0
2017-Nov-16 15:28N 49°27' E 000°10'0 0.0
2017-Nov-16 14:58N 49°27' E 000°10'0 0.0
2017-Nov-16 14:28N 49°27' E 000°10'0 0.0
2017-Nov-16 13:58N 49°27' E 000°10'0 0.0
2017-Nov-16 13:28N 49°27' E 000°10'0 0.0
2017-Nov-16 12:58N 49°27' E 000°10'0 0.0
2017-Nov-16 12:28N 49°27' E 000°10'0 0.0
2017-Nov-16 11:58N 49°27' E 000°10'0 0.0
2017-Nov-16 11:28N 49°27' E 000°10'0 0.0
2017-Nov-16 10:58N 49°27' E 000°10'0 0.0
2017-Nov-16 10:28N 49°27' E 000°10'0 0.0
2017-Nov-16 09:58N 49°27' E 000°10'0 0.0
2017-Nov-16 09:28N 49°27' E 000°10'0 0.0
2017-Nov-16 08:58N 49°27' E 000°10'0 0.0
2017-Nov-16 08:28N 49°27' E 000°10'0 0.0
2017-Nov-16 07:58N 49°27' E 000°10'0 0.0
2017-Nov-16 07:28N 49°27' E 000°10'0 0.0
2017-Nov-16 06:58N 49°27' E 000°10'0 0.0
2017-Nov-16 06:28N 49°27' E 000°10'0 0.0
2017-Nov-16 05:58N 49°27' E 000°10'0 0.0
2017-Nov-16 05:28N 49°27' E 000°10'0 0.0
2017-Nov-16 04:58N 49°27' E 000°10'0 0.0
2017-Nov-16 04:28N 49°27' E 000°10'0 0.0
2017-Nov-16 03:58N 49°27' E 000°10'0 0.0
2017-Nov-16 03:28N 49°27' E 000°10'0 0.0
2017-Nov-16 02:58N 49°27' E 000°10'0 0.0
2017-Nov-16 02:28N 49°27' E 000°10'0 0.0
2017-Nov-16 01:58N 49°27' E 000°10'0 0.0
2017-Nov-16 01:28N 49°27' E 000°10'0 0.0
2017-Nov-16 00:58N 49°27' E 000°10'0 0.0
2017-Nov-16 00:28N 49°27' E 000°10'0 0.0
2017-Nov-15 23:58N 49°27' E 000°10'0 0.0
2017-Nov-15 23:28N 49°27' E 000°10'0 0.0
2017-Nov-15 22:58N 49°27' E 000°10'0 0.0
2017-Nov-15 22:28N 49°27' E 000°10'0 0.0
2017-Nov-15 21:58N 49°27' E 000°10'0 0.0
2017-Nov-15 21:28N 49°27' E 000°10'0 0.0
2017-Nov-15 20:58N 49°27' E 000°10'0 0.0
2017-Nov-15 20:28N 49°27' E 000°10'0 0.0
2017-Nov-15 19:58N 49°27' E 000°10'0 0.0
2017-Nov-15 19:28N 49°27' E 000°10'0 0.0
2017-Nov-15 18:58N 49°27' E 000°10'0 0.0
2017-Nov-15 18:28N 49°27' E 000°10'0 0.0
2017-Nov-15 17:58N 49°27' E 000°10'0 0.7
2017-Nov-15 17:30N 49°27' E 000°09'2 3.1
2017-Nov-15 17:00N 49°28' E 000°07'611.3
2017-Nov-15 16:31N 49°30' W 000°01'713.1
2017-Nov-15 16:01N 49°32' W 000°10'1 2.0
2017-Nov-15 15:30N 49°33' W 000°12'713.7
2017-Nov-15 15:00N 49°40' W 000°11'917.5
2017-Nov-15 14:31N 49°47' W 000°05'918.6
2017-Nov-15 14:00N 49°54' E 000°05'918.6
2017-Nov-15 13:30N 50°02' E 000°14'3517.2
2017-Nov-15 11:30N 50°30' E 000°44'816.3
2017-Nov-15 11:01N 50°38' E 000°46'917.8
2017-Nov-15 10:30N 50°44' E 000°57'917.1
2017-Nov-15 10:00N 50°49' E 001°07'816.4
2017-Nov-15 09:30N 50°54' E 001°17'816.0
2017-Nov-15 09:00N 50°60' E 001°26'917.3
2017-Nov-15 08:30N 51°06' E 001°36'917.9
2017-Nov-15 08:00N 51°13' E 001°45'918.9
2017-Nov-15 07:30N 51°20' E 001°54'1019.3
2017-Nov-15 07:00N 51°28' E 002°03'1019.4
2017-Nov-15 06:30N 51°35' E 002°14'1019.7
2017-Nov-15 06:00N 51°43' E 002°24'3617.9
2017-Nov-15 04:00N 52°03' E 003°12'1017.9
2017-Nov-15 03:27N 52°03' E 003°28'716.6
2017-Nov-15 03:00N 52°03' E 003°40'713.2
2017-Nov-15 02:30N 52°03' E 003°51'4 8.4
2017-Nov-15 02:00N 52°01' E 003°57'611.5
2017-Nov-15 01:31N 51°59' E 004°05'2 3.3
2017-Nov-15 01:00N 51°58' E 004°02'2 3.0
2017-Nov-15 00:30N 51°58' E 003°60'1 1.2
2017-Nov-15 00:00N 51°57' E 003°60'0 0.0
2017-Nov-14 23:29N 51°57' E 003°60'0 0.0
2017-Nov-14 22:59N 51°57' E 003°60'0 0.0
2017-Nov-14 22:29N 51°57' E 003°60'0 0.0
2017-Nov-14 21:59N 51°57' E 003°60'0 0.0
2017-Nov-14 21:29N 51°57' E 003°60'0 0.0
2017-Nov-14 20:59N 51°57' E 003°60'0 0.0
2017-Nov-14 20:29N 51°57' E 003°60'0 0.0
2017-Nov-14 19:59N 51°57' E 003°60'0 0.0
2017-Nov-14 19:29N 51°57' E 003°60'0 0.0
2017-Nov-14 18:59N 51°57' E 003°60'0 0.0
2017-Nov-14 18:29N 51°57' E 003°60'0 0.0
2017-Nov-14 17:59N 51°57' E 003°60'0 0.0
2017-Nov-14 17:29N 51°57' E 003°60'0 0.0
2017-Nov-14 16:59N 51°57' E 003°60'0 0.0
2017-Nov-14 16:29N 51°57' E 003°60'0 0.0
2017-Nov-14 15:59N 51°57' E 003°60'0 0.0
2017-Nov-14 15:29N 51°57' E 003°60'0 0.0
2017-Nov-14 14:59N 51°57' E 003°60'0 0.0
2017-Nov-14 14:29N 51°57' E 003°60'0 0.0
2017-Nov-14 13:59N 51°57' E 003°60'0 0.0
2017-Nov-14 13:29N 51°57' E 003°60'0 0.0
2017-Nov-14 12:59N 51°57' E 003°60'0 0.0
2017-Nov-14 12:29N 51°57' E 003°60'0 0.0
2017-Nov-14 11:59N 51°57' E 003°60'0 0.0
2017-Nov-14 11:29N 51°57' E 003°60'0 0.0
2017-Nov-14 10:59N 51°57' E 003°60'0 0.0
2017-Nov-14 10:29N 51°57' E 003°60'0 0.0
2017-Nov-14 09:59N 51°57' E 003°60'0 0.0
2017-Nov-14 09:29N 51°57' E 003°60'0 0.0
2017-Nov-14 08:59N 51°57' E 003°60'0 0.0
2017-Nov-14 08:29N 51°57' E 003°60'0 0.0
2017-Nov-14 07:59N 51°57' E 003°60'0 0.0
2017-Nov-14 07:29N 51°57' E 003°60'0 0.0
2017-Nov-14 06:59N 51°57' E 003°60'0 0.0
2017-Nov-14 06:29N 51°57' E 003°60'0 0.0
2017-Nov-14 05:59N 51°57' E 003°60'0 0.0
2017-Nov-14 05:29N 51°57' E 003°60'0 0.0
2017-Nov-14 04:59N 51°57' E 003°60'0 0.0
2017-Nov-14 04:29N 51°57' E 003°60'0 0.0
2017-Nov-14 03:59N 51°57' E 003°60'0 0.0
2017-Nov-14 03:29N 51°57' E 003°60'0 0.0
2017-Nov-14 02:59N 51°57' E 003°60'0 0.0
2017-Nov-14 02:29N 51°57' E 003°60'0 0.0
2017-Nov-14 01:59N 51°57' E 003°60'0 0.0
2017-Nov-14 01:29N 51°57' E 003°60'0 0.0
2017-Nov-14 00:58N 51°57' E 003°60'0 0.0
2017-Nov-14 00:29N 51°57' E 003°60'0 0.0
2017-Nov-13 23:59N 51°57' E 003°60'0 0.0
2017-Nov-13 23:26N 51°57' E 003°60'0 0.0
2017-Nov-13 22:59N 51°57' E 003°60'0 0.0
2017-Nov-13 22:29N 51°57' E 003°60'0 0.0
2017-Nov-13 21:56N 51°57' E 003°60'0 0.0
2017-Nov-13 01:58N 51°57' E 003°60'0 0.0
2017-Nov-13 01:28N 51°57' E 003°60'0 0.0
2017-Nov-13 00:58N 51°57' E 003°60'0 0.0
2017-Nov-13 00:28N 51°57' E 003°60'0 0.0
2017-Nov-12 23:58N 51°57' E 003°60'0 0.0
2017-Nov-12 23:28N 51°57' E 003°60'0 0.0
2017-Nov-12 22:58N 51°57' E 003°60'0 0.0
2017-Nov-12 22:28N 51°57' E 003°60'0 0.0
2017-Nov-12 21:58N 51°57' E 003°60'0 0.0
2017-Nov-12 21:28N 51°57' E 003°60'0 0.0
2017-Nov-12 20:58N 51°57' E 003°60'0 0.0
2017-Nov-12 20:28N 51°57' E 003°60'0 0.0
2017-Nov-12 19:58N 51°57' E 003°60'0 0.0
2017-Nov-12 19:28N 51°57' E 003°60'0 0.0
2017-Nov-12 18:58N 51°57' E 003°60'0 0.0
2017-Nov-12 18:28N 51°57' E 003°60'0 0.0
2017-Nov-12 17:58N 51°57' E 003°60'0 0.0
2017-Nov-12 17:28N 51°57' E 003°60'0 0.0
2017-Nov-12 16:58N 51°57' E 003°60'0 0.0
2017-Nov-12 16:28N 51°57' E 003°60'0 0.0
2017-Nov-12 15:58N 51°57' E 003°60'0 0.0
2017-Nov-12 15:28N 51°57' E 003°60'0 0.0
2017-Nov-12 14:58N 51°57' E 003°60'0 0.0
2017-Nov-12 14:28N 51°57' E 003°60'0 0.0
2017-Nov-12 13:58N 51°57' E 003°60'0 0.0
2017-Nov-12 13:28N 51°57' E 003°60'0 0.0
2017-Nov-12 12:58N 51°57' E 003°60'0 0.0
2017-Nov-12 12:28N 51°57' E 003°60'0 0.0
2017-Nov-12 11:55N 51°57' E 003°60'0 0.0
2017-Nov-12 11:28N 51°57' E 003°60'0 0.0
2017-Nov-12 10:58N 51°57' E 003°60'1 2.2
2017-Nov-12 10:30N 51°58' E 003°60'2 3.4
2017-Nov-12 10:00N 51°58' E 004°03'2 3.1
2017-Nov-12 09:31N 51°58' E 004°05'4 9.0
2017-Nov-12 09:00N 52°00' E 003°59'713.7
2017-Nov-12 08:30N 52°00' E 003°48'3 5.7
2017-Nov-12 08:00N 52°01' E 003°43'3 5.8
2017-Nov-12 07:30N 52°03' E 003°44'713.3
2017-Nov-12 07:00N 52°10' E 003°46'817.0
2017-Nov-12 06:30N 52°18' E 003°47'917.1
2017-Nov-12 06:00N 52°27' E 003°50'917.6
2017-Nov-12 05:30N 52°35' E 003°53'918.2
2017-Nov-12 05:00N 52°44' E 003°56'1318.4
2017-Nov-12 04:19N 52°57' E 004°00'817.7
2017-Nov-12 03:52N 53°02' E 004°11'718.5
2017-Nov-12 03:30N 53°06' E 004°19'917.6
2017-Nov-12 03:00N 53°13' E 004°27'12015.3
2017-Nov-11 19:11N 54°00' E 007°33'417.3
2017-Nov-11 18:58N 54°01' E 007°39'817.6
2017-Nov-11 18:30N 54°01' E 007°53'816.4
2017-Nov-11 18:00N 54°01' E 008°07'611.4
2017-Nov-11 17:30N 54°00' E 008°17'714.3
2017-Nov-11 17:00N 53°59' E 008°28'612.8
2017-Nov-11 16:30N 53°57' E 008°39'511.0
2017-Nov-11 16:00N 53°52' E 008°44'510.5
2017-Nov-11 15:30N 53°50' E 008°52'612.7
2017-Nov-11 15:00N 53°52' E 009°03'611.9
2017-Nov-11 14:30N 53°53' E 009°13'714.6
2017-Nov-11 14:00N 53°48' E 009°23'713.9
2017-Nov-11 13:31N 53°43' E 009°29'612.4
2017-Nov-11 13:00N 53°37' E 009°34'611.8
2017-Nov-11 12:31N 53°34' E 009°42'510.2
2017-Nov-11 12:00N 53°33' E 009°51'3 5.0
2017-Nov-11 11:30N 53°32' E 009°55'0 0.1
2017-Nov-11 10:58N 53°32' E 009°55'0 0.0
2017-Nov-11 10:28N 53°32' E 009°55'0 0.0
2017-Nov-11 09:58N 53°32' E 009°55'0 0.0
2017-Nov-11 09:28N 53°32' E 009°55'0 0.0
2017-Nov-11 08:58N 53°32' E 009°55'0 0.0
2017-Nov-11 08:28N 53°32' E 009°55'0 0.0
2017-Nov-11 07:58N 53°32' E 009°55'0 0.0
2017-Nov-11 07:28N 53°32' E 009°55'0 0.0
2017-Nov-11 06:58N 53°32' E 009°55'0 0.0
2017-Nov-11 06:28N 53°32' E 009°55'0 0.0
2017-Nov-11 05:55N 53°32' E 009°55'0 0.0
2017-Nov-11 05:28N 53°32' E 009°55'0 0.0
2017-Nov-11 04:58N 53°32' E 009°55'0 0.0
2017-Nov-11 04:28N 53°32' E 009°55'0 0.0
2017-Nov-11 03:58N 53°32' E 009°55'0 0.0
2017-Nov-11 03:28N 53°32' E 009°55'0 0.0
2017-Nov-11 02:58N 53°32' E 009°55'0 0.0
2017-Nov-11 02:28N 53°32' E 009°55'0 0.0
2017-Nov-11 01:58N 53°32' E 009°55'0 0.0
2017-Nov-11 01:28N 53°32' E 009°55'0 0.0
2017-Nov-11 00:58N 53°32' E 009°55'0 0.0
2017-Nov-11 00:28N 53°32' E 009°55'0 0.0
2017-Nov-10 23:58N 53°32' E 009°55'0 0.0
2017-Nov-10 23:25N 53°32' E 009°55'0 0.0
2017-Nov-10 22:58N 53°32' E 009°55'0 0.0
2017-Nov-10 22:28N 53°32' E 009°55'0 0.0
2017-Nov-10 21:58N 53°32' E 009°55'0 0.0
2017-Nov-10 21:28N 53°32' E 009°55'0 0.0
2017-Nov-10 20:58N 53°32' E 009°55'0 0.0
2017-Nov-10 20:28N 53°32' E 009°55'0 0.0
2017-Nov-10 19:58N 53°32' E 009°55'0 0.0
2017-Nov-10 19:28N 53°32' E 009°55'0 0.0
2017-Nov-10 18:58N 53°32' E 009°55'0 0.0
2017-Nov-10 18:28N 53°32' E 009°55'0 0.0
2017-Nov-10 17:58N 53°32' E 009°55'0 0.0
2017-Nov-10 17:28N 53°32' E 009°55'0 0.0
2017-Nov-10 16:58N 53°32' E 009°55'0 0.0
2017-Nov-10 16:28N 53°32' E 009°55'0 0.0
2017-Nov-10 15:58N 53°32' E 009°55'0 0.0
2017-Nov-10 15:28N 53°32' E 009°55'0 0.0
2017-Nov-10 14:58N 53°32' E 009°55'0 0.0
2017-Nov-10 14:28N 53°32' E 009°55'0 0.0
2017-Nov-10 13:58N 53°32' E 009°55'0 0.0
2017-Nov-10 13:28N 53°32' E 009°55'0 0.0
2017-Nov-10 12:58N 53°32' E 009°55'0 0.0
2017-Nov-10 12:28N 53°32' E 009°55'0 0.0
2017-Nov-10 11:58N 53°32' E 009°55'0 0.0
2017-Nov-10 11:28N 53°32' E 009°55'0 0.0
2017-Nov-10 10:58N 53°32' E 009°55'0 0.0
2017-Nov-10 10:25N 53°32' E 009°55'0 0.0
2017-Nov-10 09:58N 53°32' E 009°55'0 0.0
2017-Nov-10 09:28N 53°32' E 009°55'0 0.0
2017-Nov-10 08:58N 53°32' E 009°55'0 0.0
2017-Nov-10 08:28N 53°32' E 009°55'0 0.0
2017-Nov-10 07:58N 53°32' E 009°55'0 0.0
2017-Nov-10 07:28N 53°32' E 009°55'0 0.0
2017-Nov-10 06:58N 53°32' E 009°55'0 0.0
2017-Nov-10 06:28N 53°32' E 009°55'0 0.0
2017-Nov-10 05:58N 53°32' E 009°55'0 0.0
2017-Nov-10 05:28N 53°32' E 009°55'0 0.0
2017-Nov-10 04:58N 53°32' E 009°55'0 0.0
2017-Nov-10 04:28N 53°32' E 009°55'0 0.0
2017-Nov-10 03:55N 53°32' E 009°55'0 0.0
2017-Nov-10 03:28N 53°32' E 009°55'0 0.0
2017-Nov-10 02:58N 53°32' E 009°55'0 0.0
2017-Nov-10 02:28N 53°32' E 009°55'0 0.0
2017-Nov-10 01:58N 53°32' E 009°55'0 0.0
2017-Nov-10 01:28N 53°32' E 009°55'0 0.0
2017-Nov-10 00:58N 53°32' E 009°55'0 0.0
2017-Nov-10 00:25N 53°32' E 009°55'0 0.0
2017-Nov-09 23:58N 53°32' E 009°55'0 0.0
2017-Nov-09 23:28N 53°32' E 009°55'0 0.0
2017-Nov-09 22:58N 53°32' E 009°55'0 0.0
2017-Nov-09 22:28N 53°32' E 009°55'0 0.0
2017-Nov-09 21:58N 53°32' E 009°55'0 0.0
2017-Nov-09 21:28N 53°32' E 009°55'0 0.0
2017-Nov-09 20:58N 53°32' E 009°55'0 0.0
2017-Nov-09 20:28N 53°32' E 009°55'0 0.0
2017-Nov-09 19:58N 53°32' E 009°55'0 0.0
2017-Nov-09 19:28N 53°32' E 009°55'0 0.0
2017-Nov-09 18:58N 53°32' E 009°55'0 0.0
2017-Nov-09 18:28N 53°32' E 009°55'0 0.0
2017-Nov-09 17:58N 53°32' E 009°55'0 0.0
2017-Nov-09 17:28N 53°32' E 009°55'0 0.0
2017-Nov-09 16:58N 53°32' E 009°55'0 0.0
2017-Nov-09 16:28N 53°32' E 009°55'0 0.0
2017-Nov-09 15:58N 53°32' E 009°55'0 0.0
2017-Nov-09 15:28N 53°32' E 009°55'0 0.0
2017-Nov-09 14:58N 53°32' E 009°55'0 0.0
2017-Nov-09 14:28N 53°32' E 009°55'0 0.0
2017-Nov-09 13:58N 53°32' E 009°55'0 0.0
2017-Nov-09 13:28N 53°32' E 009°55'0 0.0
2017-Nov-09 12:58N 53°32' E 009°55'0 0.0
2017-Nov-09 12:28N 53°32' E 009°55'0 0.0
2017-Nov-09 11:58N 53°32' E 009°55'0 0.0
2017-Nov-09 11:28N 53°32' E 009°55'0 0.0
2017-Nov-09 10:58N 53°32' E 009°55'0 0.0
2017-Nov-09 10:28N 53°32' E 009°55'0 0.0
2017-Nov-09 09:58N 53°32' E 009°55'0 0.0
2017-Nov-09 09:28N 53°32' E 009°55'0 0.0
2017-Nov-09 08:58N 53°32' E 009°55'0 0.0
2017-Nov-09 08:28N 53°32' E 009°55'0 0.0
2017-Nov-09 07:58N 53°32' E 009°55'0 0.0
2017-Nov-09 07:28N 53°32' E 009°55'0 0.0
2017-Nov-09 06:58N 53°32' E 009°55'0 0.0
2017-Nov-09 06:28N 53°32' E 009°55'0 0.0
2017-Nov-09 05:58N 53°32' E 009°55'0 0.0
2017-Nov-09 05:28N 53°32' E 009°55'0 0.0
2017-Nov-09 04:58N 53°32' E 009°55'0 0.0
2017-Nov-09 04:28N 53°32' E 009°55'0 0.0
2017-Nov-09 03:58N 53°32' E 009°55'0 0.0
2017-Nov-09 03:28N 53°32' E 009°55'0 0.0
2017-Nov-09 02:58N 53°32' E 009°55'0 0.0
2017-Nov-09 02:28N 53°32' E 009°55'0 0.0
2017-Nov-09 01:58N 53°32' E 009°55'0 0.0
2017-Nov-09 01:28N 53°32' E 009°55'0 0.0
2017-Nov-09 00:58N 53°32' E 009°55'0 0.0
2017-Nov-09 00:31N 53°32' E 009°55'0 0.0
2017-Nov-08 23:58N 53°32' E 009°55'0 0.0
2017-Nov-08 23:28N 53°32' E 009°55'0 0.0
2017-Nov-08 22:58N 53°32' E 009°55'0 0.0
2017-Nov-08 22:31N 53°32' E 009°55'0 0.0
2017-Nov-08 22:01N 53°32' E 009°55'0 0.0
2017-Nov-08 21:28N 53°32' E 009°55'0 0.0
2017-Nov-08 20:58N 53°32' E 009°55'0 0.0
2017-Nov-08 20:28N 53°32' E 009°55'0 0.0
2017-Nov-08 19:58N 53°32' E 009°55'0 0.0
2017-Nov-08 19:28N 53°32' E 009°55'0 0.0
2017-Nov-08 18:58N 53°32' E 009°55'0 0.0
2017-Nov-08 18:31N 53°32' E 009°55'0 0.0
2017-Nov-08 17:58N 53°32' E 009°55'0 0.0
2017-Nov-08 17:25N 53°32' E 009°55'0 0.0
2017-Nov-08 16:58N 53°32' E 009°55'0 0.0
2017-Nov-08 16:28N 53°32' E 009°55'0 0.0
2017-Nov-08 15:58N 53°32' E 009°55'0 0.0
2017-Nov-08 15:28N 53°32' E 009°55'0 0.0
2017-Nov-08 14:57N 53°32' E 009°55'0 0.0
2017-Nov-08 14:28N 53°32' E 009°55'0 0.0
2017-Nov-08 14:01N 53°32' E 009°55'0 0.0
2017-Nov-08 13:28N 53°32' E 009°55'0 0.0
2017-Nov-08 13:01N 53°32' E 009°55'0 0.0
2017-Nov-08 12:28N 53°32' E 009°55'0 0.0
2017-Nov-08 11:58N 53°32' E 009°55'0 0.0
2017-Nov-08 11:28N 53°32' E 009°55'0 0.0
2017-Nov-08 10:58N 53°32' E 009°55'0 0.0
2017-Nov-08 10:31N 53°32' E 009°55'0 0.0
2017-Nov-08 10:01N 53°32' E 009°55'0 0.0
2017-Nov-08 09:30N 53°32' E 009°55'0 0.0
2017-Nov-08 08:58N 53°32' E 009°55'0 0.0
2017-Nov-08 08:28N 53°32' E 009°55'0 0.0
2017-Nov-08 08:01N 53°32' E 009°55'0 0.0
2017-Nov-08 07:31N 53°32' E 009°55'  

Dump ship's entire track history